sensor_id;sensor_type;location;lat;lon;timestamp;temperature;humidity
31991;DHT22;18508;49.386;8.370;2022-07-12T00:02:20;17.90;99.90
31991;DHT22;18508;49.386;8.370;2022-07-12T00:04:48;17.90;99.90
31991;DHT22;18508;49.386;8.370;2022-07-12T00:07:16;17.90;99.90
31991;DHT22;18508;49.386;8.370;2022-07-12T00:09:45;17.80;99.90
31991;DHT22;18508;49.386;8.370;2022-07-12T00:12:13;17.80;99.90
31991;DHT22;18508;49.386;8.370;2022-07-12T00:14:41;17.70;99.90
31991;DHT22;18508;49.386;8.370;2022-07-12T00:17:09;17.70;99.90
31991;DHT22;18508;49.386;8.370;2022-07-12T00:19:37;17.60;99.90
31991;DHT22;18508;49.386;8.370;2022-07-12T00:22:05;17.60;99.90
31991;DHT22;18508;49.386;8.370;2022-07-12T00:24:33;17.50;99.90
31991;DHT22;18508;49.386;8.370;2022-07-12T00:27:02;17.50;99.90
31991;DHT22;18508;49.386;8.370;2022-07-12T00:29:30;17.50;99.90
31991;DHT22;18508;49.386;8.370;2022-07-12T00:31:58;17.50;99.90
31991;DHT22;18508;49.386;8.370;2022-07-12T00:34:26;17.40;99.90
31991;DHT22;18508;49.386;8.370;2022-07-12T00:36:54;17.30;99.90
31991;DHT22;18508;49.386;8.370;2022-07-12T00:39:22;17.30;99.90
31991;DHT22;18508;49.386;8.370;2022-07-12T00:41:50;17.30;99.90
31991;DHT22;18508;49.386;8.370;2022-07-12T00:44:20;17.30;99.90
31991;DHT22;18508;49.386;8.370;2022-07-12T00:46:48;17.20;99.90
31991;DHT22;18508;49.386;8.370;2022-07-12T00:49:16;17.20;99.90
31991;DHT22;18508;49.386;8.370;2022-07-12T00:51:44;17.10;99.90
31991;DHT22;18508;49.386;8.370;2022-07-12T00:54:15;17.10;99.90
31991;DHT22;18508;49.386;8.370;2022-07-12T00:56:43;17.10;99.90
31991;DHT22;18508;49.386;8.370;2022-07-12T00:59:11;17.10;99.90
31991;DHT22;18508;49.386;8.370;2022-07-12T01:01:41;17.00;99.90
31991;DHT22;18508;49.386;8.370;2022-07-12T01:04:09;17.00;99.90
31991;DHT22;18508;49.386;8.370;2022-07-12T01:06:38;16.90;99.90
31991;DHT22;18508;49.386;8.370;2022-07-12T01:09:05;16.90;99.90
31991;DHT22;18508;49.386;8.370;2022-07-12T01:11:34;16.80;99.90
31991;DHT22;18508;49.386;8.370;2022-07-12T01:14:03;16.80;99.90
31991;DHT22;18508;49.386;8.370;2022-07-12T01:16:31;16.80;99.90
31991;DHT22;18508;49.386;8.370;2022-07-12T01:19:04;16.80;99.90
31991;DHT22;18508;49.386;8.370;2022-07-12T01:21:37;16.70;99.90
31991;DHT22;18508;49.386;8.370;2022-07-12T01:24:07;16.70;99.90
31991;DHT22;18508;49.386;8.370;2022-07-12T01:26:36;16.60;99.90
31991;DHT22;18508;49.386;8.370;2022-07-12T01:29:05;16.60;99.90
31991;DHT22;18508;49.386;8.370;2022-07-12T01:31:34;16.50;99.90
31991;DHT22;18508;49.386;8.370;2022-07-12T01:34:03;16.50;99.90
31991;DHT22;18508;49.386;8.370;2022-07-12T01:36:31;16.50;99.90
31991;DHT22;18508;49.386;8.370;2022-07-12T01:38:59;16.40;99.90
31991;DHT22;18508;49.386;8.370;2022-07-12T01:41:28;16.40;99.90
31991;DHT22;18508;49.386;8.370;2022-07-12T01:43:57;16.30;99.90
31991;DHT22;18508;49.386;8.370;2022-07-12T01:46:25;16.30;99.90
31991;DHT22;18508;49.386;8.370;2022-07-12T01:48:53;16.30;99.90
31991;DHT22;18508;49.386;8.370;2022-07-12T01:51:21;16.20;99.90
31991;DHT22;18508;49.386;8.370;2022-07-12T01:53:49;16.20;99.90
31991;DHT22;18508;49.386;8.370;2022-07-12T01:56:18;16.10;99.90
31991;DHT22;18508;49.386;8.370;2022-07-12T01:58:47;16.10;99.90
31991;DHT22;18508;49.386;8.370;2022-07-12T02:01:15;16.10;99.90
31991;DHT22;18508;49.386;8.370;2022-07-12T02:03:43;16.00;99.90
31991;DHT22;18508;49.386;8.370;2022-07-12T02:06:11;16.00;99.90
31991;DHT22;18508;49.386;8.370;2022-07-12T02:08:41;16.00;99.90
31991;DHT22;18508;49.386;8.370;2022-07-12T02:11:09;16.00;99.90
31991;DHT22;18508;49.386;8.370;2022-07-12T02:13:38;15.90;99.90
31991;DHT22;18508;49.386;8.370;2022-07-12T02:16:08;15.90;99.90
31991;DHT22;18508;49.386;8.370;2022-07-12T02:18:36;15.80;99.90
31991;DHT22;18508;49.386;8.370;2022-07-12T02:21:04;15.80;99.90
31991;DHT22;18508;49.386;8.370;2022-07-12T02:23:32;15.80;99.90
31991;DHT22;18508;49.386;8.370;2022-07-12T02:26:00;15.80;99.90
31991;DHT22;18508;49.386;8.370;2022-07-12T02:28:28;15.70;99.90
31991;DHT22;18508;49.386;8.370;2022-07-12T02:30:56;15.70;99.90
31991;DHT22;18508;49.386;8.370;2022-07-12T02:33:26;15.70;99.90
31991;DHT22;18508;49.386;8.370;2022-07-12T02:35:54;15.70;99.90
31991;DHT22;18508;49.386;8.370;2022-07-12T02:38:22;15.70;99.90
31991;DHT22;18508;49.386;8.370;2022-07-12T02:40:50;15.60;99.90
31991;DHT22;18508;49.386;8.370;2022-07-12T02:43:21;15.60;99.90
31991;DHT22;18508;49.386;8.370;2022-07-12T02:45:49;15.60;99.90
31991;DHT22;18508;49.386;8.370;2022-07-12T02:48:18;15.60;99.90
31991;DHT22;18508;49.386;8.370;2022-07-12T02:50:48;15.50;99.90
31991;DHT22;18508;49.386;8.370;2022-07-12T02:53:16;15.50;99.90
31991;DHT22;18508;49.386;8.370;2022-07-12T02:55:44;15.50;99.90
31991;DHT22;18508;49.386;8.370;2022-07-12T02:58:13;15.40;99.90
31991;DHT22;18508;49.386;8.370;2022-07-12T03:00:41;15.40;99.90
31991;DHT22;18508;49.386;8.370;2022-07-12T03:03:11;15.40;99.90
31991;DHT22;18508;49.386;8.370;2022-07-12T03:05:41;15.40;99.90
31991;DHT22;18508;49.386;8.370;2022-07-12T03:08:14;15.30;99.90
31991;DHT22;18508;49.386;8.370;2022-07-12T03:10:45;15.30;99.90
31991;DHT22;18508;49.386;8.370;2022-07-12T03:13:19;15.30;99.90
31991;DHT22;18508;49.386;8.370;2022-07-12T03:15:55;15.30;99.90
31991;DHT22;18508;49.386;8.370;2022-07-12T03:18:24;15.30;99.90
31991;DHT22;18508;49.386;8.370;2022-07-12T03:20:57;15.20;99.90
31991;DHT22;18508;49.386;8.370;2022-07-12T03:23:30;15.20;99.90
31991;DHT22;18508;49.386;8.370;2022-07-12T03:26:01;15.20;99.90
31991;DHT22;18508;49.386;8.370;2022-07-12T03:28:40;15.20;99.90
31991;DHT22;18508;49.386;8.370;2022-07-12T03:31:10;15.20;99.90
31991;DHT22;18508;49.386;8.370;2022-07-12T03:33:39;15.20;99.90
31991;DHT22;18508;49.386;8.370;2022-07-12T03:36:08;15.10;99.90
31991;DHT22;18508;49.386;8.370;2022-07-12T03:38:48;15.10;99.90
31991;DHT22;18508;49.386;8.370;2022-07-12T03:41:21;15.10;99.90
31991;DHT22;18508;49.386;8.370;2022-07-12T03:43:55;15.10;99.90
31991;DHT22;18508;49.386;8.370;2022-07-12T03:46:24;15.10;99.90
31991;DHT22;18508;49.386;8.370;2022-07-12T03:48:56;15.10;99.90
31991;DHT22;18508;49.386;8.370;2022-07-12T03:51:27;15.00;99.90
31991;DHT22;18508;49.386;8.370;2022-07-12T03:54:00;15.10;99.90
31991;DHT22;18508;49.386;8.370;2022-07-12T03:56:39;15.10;99.90
31991;DHT22;18508;49.386;8.370;2022-07-12T03:59:26;15.10;99.90
31991;DHT22;18508;49.386;8.370;2022-07-12T04:02:01;15.10;99.90
31991;DHT22;18508;49.386;8.370;2022-07-12T04:04:35;15.10;99.90
31991;DHT22;18508;49.386;8.370;2022-07-12T04:07:08;15.00;99.90
31991;DHT22;18508;49.386;8.370;2022-07-12T04:09:37;15.10;99.90
31991;DHT22;18508;49.386;8.370;2022-07-12T04:12:06;15.10;99.90
31991;DHT22;18508;49.386;8.370;2022-07-12T04:14:34;15.10;99.90
31991;DHT22;18508;49.386;8.370;2022-07-12T04:17:03;15.10;99.90
31991;DHT22;18508;49.386;8.370;2022-07-12T04:19:32;15.20;99.90
31991;DHT22;18508;49.386;8.370;2022-07-12T04:22:01;15.20;99.90
31991;DHT22;18508;49.386;8.370;2022-07-12T04:24:37;15.20;99.90
31991;DHT22;18508;49.386;8.370;2022-07-12T04:27:06;15.30;99.90
31991;DHT22;18508;49.386;8.370;2022-07-12T04:29:34;15.30;99.90
31991;DHT22;18508;49.386;8.370;2022-07-12T04:32:02;15.30;99.90
31991;DHT22;18508;49.386;8.370;2022-07-12T04:34:30;15.40;99.90
31991;DHT22;18508;49.386;8.370;2022-07-12T04:36:58;15.40;99.90
31991;DHT22;18508;49.386;8.370;2022-07-12T04:39:26;15.40;99.90
31991;DHT22;18508;49.386;8.370;2022-07-12T04:41:55;15.50;99.90
31991;DHT22;18508;49.386;8.370;2022-07-12T04:44:24;15.60;99.90
31991;DHT22;18508;49.386;8.370;2022-07-12T04:46:52;15.60;99.90
31991;DHT22;18508;49.386;8.370;2022-07-12T04:49:20;15.60;99.90
31991;DHT22;18508;49.386;8.370;2022-07-12T04:51:48;15.70;99.90
31991;DHT22;18508;49.386;8.370;2022-07-12T04:54:16;15.80;99.90
31991;DHT22;18508;49.386;8.370;2022-07-12T04:56:44;15.80;99.90
31991;DHT22;18508;49.386;8.370;2022-07-12T04:59:13;15.90;99.90
31991;DHT22;18508;49.386;8.370;2022-07-12T05:01:41;15.90;99.90
31991;DHT22;18508;49.386;8.370;2022-07-12T05:04:10;16.00;99.90
31991;DHT22;18508;49.386;8.370;2022-07-12T05:06:38;16.10;99.90
31991;DHT22;18508;49.386;8.370;2022-07-12T05:09:07;16.20;99.90
31991;DHT22;18508;49.386;8.370;2022-07-12T05:11:35;16.20;99.90
31991;DHT22;18508;49.386;8.370;2022-07-12T05:14:03;16.30;99.90
31991;DHT22;18508;49.386;8.370;2022-07-12T05:16:32;16.40;99.90
31991;DHT22;18508;49.386;8.370;2022-07-12T05:19:01;16.50;99.90
31991;DHT22;18508;49.386;8.370;2022-07-12T05:21:29;16.60;99.90
31991;DHT22;18508;49.386;8.370;2022-07-12T05:23:57;16.70;99.90
31991;DHT22;18508;49.386;8.370;2022-07-12T05:26:26;16.80;99.90
31991;DHT22;18508;49.386;8.370;2022-07-12T05:28:55;16.90;99.90
31991;DHT22;18508;49.386;8.370;2022-07-12T05:31:23;17.00;99.90
31991;DHT22;18508;49.386;8.370;2022-07-12T05:33:56;17.10;99.90
31991;DHT22;18508;49.386;8.370;2022-07-12T05:36:24;17.20;99.90
31991;DHT22;18508;49.386;8.370;2022-07-12T05:38:53;17.30;99.90
31991;DHT22;18508;49.386;8.370;2022-07-12T05:41:21;17.50;99.90
31991;DHT22;18508;49.386;8.370;2022-07-12T05:43:49;17.60;99.90
31991;DHT22;18508;49.386;8.370;2022-07-12T05:46:20;17.70;99.90
31991;DHT22;18508;49.386;8.370;2022-07-12T05:48:48;17.90;99.90
31991;DHT22;18508;49.386;8.370;2022-07-12T05:51:19;18.00;99.90
31991;DHT22;18508;49.386;8.370;2022-07-12T05:54:18;18.10;99.90
31991;DHT22;18508;49.386;8.370;2022-07-12T05:56:47;18.30;99.90
31991;DHT22;18508;49.386;8.370;2022-07-12T05:59:18;18.50;99.90
31991;DHT22;18508;49.386;8.370;2022-07-12T06:01:47;18.60;99.90
31991;DHT22;18508;49.386;8.370;2022-07-12T06:04:15;18.70;99.90
31991;DHT22;18508;49.386;8.370;2022-07-12T06:06:45;18.80;99.90
31991;DHT22;18508;49.386;8.370;2022-07-12T06:09:14;18.90;99.90
31991;DHT22;18508;49.386;8.370;2022-07-12T06:11:44;19.00;99.90
31991;DHT22;18508;49.386;8.370;2022-07-12T06:14:13;19.10;99.90
31991;DHT22;18508;49.386;8.370;2022-07-12T06:16:41;19.20;99.90
31991;DHT22;18508;49.386;8.370;2022-07-12T06:19:10;19.20;99.90
31991;DHT22;18508;49.386;8.370;2022-07-12T06:21:38;19.40;99.90
31991;DHT22;18508;49.386;8.370;2022-07-12T06:24:07;19.50;99.90
31991;DHT22;18508;49.386;8.370;2022-07-12T06:26:37;19.60;99.60
31991;DHT22;18508;49.386;8.370;2022-07-12T06:29:09;19.70;99.50
31991;DHT22;18508;49.386;8.370;2022-07-12T06:31:38;19.80;97.20
31991;DHT22;18508;49.386;8.370;2022-07-12T06:34:10;19.90;97.40
31991;DHT22;18508;49.386;8.370;2022-07-12T06:36:39;20.00;91.40
31991;DHT22;18508;49.386;8.370;2022-07-12T06:39:11;20.10;90.70
31991;DHT22;18508;49.386;8.370;2022-07-12T06:41:40;20.30;79.10
31991;DHT22;18508;49.386;8.370;2022-07-12T06:44:09;20.40;84.60
31991;DHT22;18508;49.386;8.370;2022-07-12T06:46:37;20.40;68.90
31991;DHT22;18508;49.386;8.370;2022-07-12T06:49:14;20.50;72.30
31991;DHT22;18508;49.386;8.370;2022-07-12T06:51:44;20.70;65.20
31991;DHT22;18508;49.386;8.370;2022-07-12T06:54:14;20.80;59.00
31991;DHT22;18508;49.386;8.370;2022-07-12T06:56:42;20.90;55.50
31991;DHT22;18508;49.386;8.370;2022-07-12T06:59:11;21.00;52.20
31991;DHT22;18508;49.386;8.370;2022-07-12T07:01:42;20.90;49.40
31991;DHT22;18508;49.386;8.370;2022-07-12T07:04:11;20.90;54.20
31991;DHT22;18508;49.386;8.370;2022-07-12T07:06:39;21.10;46.50
31991;DHT22;18508;49.386;8.370;2022-07-12T07:09:07;21.10;45.60
31991;DHT22;18508;49.386;8.370;2022-07-12T07:11:37;21.20;50.20
31991;DHT22;18508;49.386;8.370;2022-07-12T07:14:06;21.30;43.70
31991;DHT22;18508;49.386;8.370;2022-07-12T07:16:36;21.40;34.10
31991;DHT22;18508;49.386;8.370;2022-07-12T07:19:04;21.40;35.70
31991;DHT22;18508;49.386;8.370;2022-07-12T07:21:32;21.50;35.00
31991;DHT22;18508;49.386;8.370;2022-07-12T07:24:01;21.60;39.60
31991;DHT22;18508;49.386;8.370;2022-07-12T07:26:31;21.70;28.20
31991;DHT22;18508;49.386;8.370;2022-07-12T07:29:06;21.80;30.10
31991;DHT22;18508;49.386;8.370;2022-07-12T07:31:52;22.00;26.50
31991;DHT22;18508;49.386;8.370;2022-07-12T07:34:20;22.00;27.00
31991;DHT22;18508;49.386;8.370;2022-07-12T07:36:49;21.70;24.70
31991;DHT22;18508;49.386;8.370;2022-07-12T07:39:17;21.90;22.40
31991;DHT22;18508;49.386;8.370;2022-07-12T07:41:47;21.90;22.20
31991;DHT22;18508;49.386;8.370;2022-07-12T07:44:18;22.10;13.30
31991;DHT22;18508;49.386;8.370;2022-07-12T07:46:47;22.20;18.20
31991;DHT22;18508;49.386;8.370;2022-07-12T07:49:15;22.20;9.20
31991;DHT22;18508;49.386;8.370;2022-07-12T07:51:44;22.10;8.00
31991;DHT22;18508;49.386;8.370;2022-07-12T07:54:12;22.10;4.10
31991;DHT22;18508;49.386;8.370;2022-07-12T07:56:42;22.20;3.00
31991;DHT22;18508;49.386;8.370;2022-07-12T07:59:14;22.10;7.00
31991;DHT22;18508;49.386;8.370;2022-07-12T08:01:44;22.10;10.90
31991;DHT22;18508;49.386;8.370;2022-07-12T08:04:20;22.20;7.20
31991;DHT22;18508;49.386;8.370;2022-07-12T08:06:50;22.40;6.90
31991;DHT22;18508;49.386;8.370;2022-07-12T08:09:18;22.60;2.00
31991;DHT22;18508;49.386;8.370;2022-07-12T08:11:48;22.60;1.00
31991;DHT22;18508;49.386;8.370;2022-07-12T08:14:18;22.80;1.70
31991;DHT22;18508;49.386;8.370;2022-07-12T08:16:49;22.80;1.00
31991;DHT22;18508;49.386;8.370;2022-07-12T08:19:18;22.90;1.00
31991;DHT22;18508;49.386;8.370;2022-07-12T08:21:47;23.10;1.00
31991;DHT22;18508;49.386;8.370;2022-07-12T08:24:16;23.30;1.00
31991;DHT22;18508;49.386;8.370;2022-07-12T08:26:45;23.50;1.00
31991;DHT22;18508;49.386;8.370;2022-07-12T08:29:17;23.60;1.00
31991;DHT22;18508;49.386;8.370;2022-07-12T08:31:46;23.60;1.00
31991;DHT22;18508;49.386;8.370;2022-07-12T08:34:17;23.60;1.00
31991;DHT22;18508;49.386;8.370;2022-07-12T08:36:46;23.50;1.00
31991;DHT22;18508;49.386;8.370;2022-07-12T08:39:14;23.60;1.00
31991;DHT22;18508;49.386;8.370;2022-07-12T08:41:42;23.60;1.00
31991;DHT22;18508;49.386;8.370;2022-07-12T08:44:11;23.70;1.00
31991;DHT22;18508;49.386;8.370;2022-07-12T08:46:41;23.80;1.00
31991;DHT22;18508;49.386;8.370;2022-07-12T08:49:12;23.90;1.00
31991;DHT22;18508;49.386;8.370;2022-07-12T08:51:43;24.00;1.00
31991;DHT22;18508;49.386;8.370;2022-07-12T08:54:13;24.00;1.00
31991;DHT22;18508;49.386;8.370;2022-07-12T08:56:44;24.10;1.00
31991;DHT22;18508;49.386;8.370;2022-07-12T08:59:14;24.00;1.00
31991;DHT22;18508;49.386;8.370;2022-07-12T09:01:47;24.00;1.00
31991;DHT22;18508;49.386;8.370;2022-07-12T09:04:18;24.10;1.00
31991;DHT22;18508;49.386;8.370;2022-07-12T09:06:49;24.00;1.00
31991;DHT22;18508;49.386;8.370;2022-07-12T09:09:26;24.10;1.00
31991;DHT22;18508;49.386;8.370;2022-07-12T09:11:56;24.00;1.00
31991;DHT22;18508;49.386;8.370;2022-07-12T09:14:25;23.80;1.00
31991;DHT22;18508;49.386;8.370;2022-07-12T09:17:02;23.70;1.00
31991;DHT22;18508;49.386;8.370;2022-07-12T09:19:31;23.80;1.00
31991;DHT22;18508;49.386;8.370;2022-07-12T09:22:01;23.90;1.00
31991;DHT22;18508;49.386;8.370;2022-07-12T09:24:31;24.20;1.00
31991;DHT22;18508;49.386;8.370;2022-07-12T09:27:02;24.30;1.00
31991;DHT22;18508;49.386;8.370;2022-07-12T09:29:32;24.70;1.00
31991;DHT22;18508;49.386;8.370;2022-07-12T09:32:07;25.00;1.00
31991;DHT22;18508;49.386;8.370;2022-07-12T09:34:56;25.00;1.00
31991;DHT22;18508;49.386;8.370;2022-07-12T09:37:43;24.80;1.00
31991;DHT22;18508;49.386;8.370;2022-07-12T09:40:13;24.90;1.00
31991;DHT22;18508;49.386;8.370;2022-07-12T09:42:43;24.80;1.00
31991;DHT22;18508;49.386;8.370;2022-07-12T09:45:12;24.80;1.00
31991;DHT22;18508;49.386;8.370;2022-07-12T09:47:43;24.90;1.00
31991;DHT22;18508;49.386;8.370;2022-07-12T09:50:17;25.00;1.00
31991;DHT22;18508;49.386;8.370;2022-07-12T09:52:54;25.10;1.00
31991;DHT22;18508;49.386;8.370;2022-07-12T09:55:29;25.00;1.00
31991;DHT22;18508;49.386;8.370;2022-07-12T09:58:01;25.20;1.00
31991;DHT22;18508;49.386;8.370;2022-07-12T10:00:31;25.20;1.00
31991;DHT22;18508;49.386;8.370;2022-07-12T10:03:03;25.20;1.00
31991;DHT22;18508;49.386;8.370;2022-07-12T10:05:34;25.30;1.00
31991;DHT22;18508;49.386;8.370;2022-07-12T10:08:06;25.20;1.00
31991;DHT22;18508;49.386;8.370;2022-07-12T10:10:36;25.30;1.00
31991;DHT22;18508;49.386;8.370;2022-07-12T10:13:08;25.30;1.00
31991;DHT22;18508;49.386;8.370;2022-07-12T10:15:39;25.30;1.00
31991;DHT22;18508;49.386;8.370;2022-07-12T10:18:16;25.10;1.00
31991;DHT22;18508;49.386;8.370;2022-07-12T10:20:51;24.80;1.00
31991;DHT22;18508;49.386;8.370;2022-07-12T10:23:36;25.00;1.00
31991;DHT22;18508;49.386;8.370;2022-07-12T10:26:25;25.10;1.00
31991;DHT22;18508;49.386;8.370;2022-07-12T10:29:02;25.00;1.00
31991;DHT22;18508;49.386;8.370;2022-07-12T10:31:34;24.80;1.00
31991;DHT22;18508;49.386;8.370;2022-07-12T10:34:14;24.60;1.00
31991;DHT22;18508;49.386;8.370;2022-07-12T10:37:07;24.70;1.00
31991;DHT22;18508;49.386;8.370;2022-07-12T10:40:11;25.00;1.00
31991;DHT22;18508;49.386;8.370;2022-07-12T10:43:15;25.10;1.00
31991;DHT22;18508;49.386;8.370;2022-07-12T10:45:48;25.40;1.00
31991;DHT22;18508;49.386;8.370;2022-07-12T10:48:23;25.60;1.00
31991;DHT22;18508;49.386;8.370;2022-07-12T10:50:56;25.70;1.00
31991;DHT22;18508;49.386;8.370;2022-07-12T10:53:30;25.80;1.00
31991;DHT22;18508;49.386;8.370;2022-07-12T10:56:09;26.00;1.00
31991;DHT22;18508;49.386;8.370;2022-07-12T10:58:40;26.20;1.00
31991;DHT22;18508;49.386;8.370;2022-07-12T11:01:11;26.30;1.00
31991;DHT22;18508;49.386;8.370;2022-07-12T11:03:48;26.20;1.00
31991;DHT22;18508;49.386;8.370;2022-07-12T11:06:18;26.20;1.00
31991;DHT22;18508;49.386;8.370;2022-07-12T11:08:52;26.10;1.00
31991;DHT22;18508;49.386;8.370;2022-07-12T11:11:24;26.20;1.00
31991;DHT22;18508;49.386;8.370;2022-07-12T11:13:53;26.20;1.00
31991;DHT22;18508;49.386;8.370;2022-07-12T11:16:22;26.30;1.00
31991;DHT22;18508;49.386;8.370;2022-07-12T11:18:52;26.40;1.00
31991;DHT22;18508;49.386;8.370;2022-07-12T11:21:21;26.60;1.00
31991;DHT22;18508;49.386;8.370;2022-07-12T11:23:51;26.60;1.00
31991;DHT22;18508;49.386;8.370;2022-07-12T11:26:20;26.60;1.00
31991;DHT22;18508;49.386;8.370;2022-07-12T11:28:50;26.80;1.00
31991;DHT22;18508;49.386;8.370;2022-07-12T11:31:18;27.10;1.00
31991;DHT22;18508;49.386;8.370;2022-07-12T11:33:49;27.30;1.00
31991;DHT22;18508;49.386;8.370;2022-07-12T11:36:19;27.60;1.00
31991;DHT22;18508;49.386;8.370;2022-07-12T11:38:47;27.60;1.00
31991;DHT22;18508;49.386;8.370;2022-07-12T11:41:16;27.80;1.00
31991;DHT22;18508;49.386;8.370;2022-07-12T11:43:47;27.90;1.00
31991;DHT22;18508;49.386;8.370;2022-07-12T11:46:17;28.10;1.00
31991;DHT22;18508;49.386;8.370;2022-07-12T11:48:47;28.10;1.00
31991;DHT22;18508;49.386;8.370;2022-07-12T11:51:15;28.00;1.00
31991;DHT22;18508;49.386;8.370;2022-07-12T11:53:43;27.80;1.00
31991;DHT22;18508;49.386;8.370;2022-07-12T11:56:29;27.50;1.00
31991;DHT22;18508;49.386;8.370;2022-07-12T11:58:58;27.50;1.00
31991;DHT22;18508;49.386;8.370;2022-07-12T12:01:29;27.60;1.00
31991;DHT22;18508;49.386;8.370;2022-07-12T12:03:57;27.80;1.00
31991;DHT22;18508;49.386;8.370;2022-07-12T12:06:26;27.90;1.00
31991;DHT22;18508;49.386;8.370;2022-07-12T12:09:04;27.70;1.00
31991;DHT22;18508;49.386;8.370;2022-07-12T12:11:33;27.60;1.00
31991;DHT22;18508;49.386;8.370;2022-07-12T12:14:04;27.70;1.00
31991;DHT22;18508;49.386;8.370;2022-07-12T12:16:34;27.90;1.00
31991;DHT22;18508;49.386;8.370;2022-07-12T12:19:10;28.00;1.00
31991;DHT22;18508;49.386;8.370;2022-07-12T12:21:40;28.30;1.00
31991;DHT22;18508;49.386;8.370;2022-07-12T12:24:09;28.40;1.00
31991;DHT22;18508;49.386;8.370;2022-07-12T12:26:39;28.20;1.00
31991;DHT22;18508;49.386;8.370;2022-07-12T12:29:10;28.50;1.00
31991;DHT22;18508;49.386;8.370;2022-07-12T12:31:40;28.60;1.00
31991;DHT22;18508;49.386;8.370;2022-07-12T12:34:12;28.80;1.00
31991;DHT22;18508;49.386;8.370;2022-07-12T12:36:42;28.90;1.00
31991;DHT22;18508;49.386;8.370;2022-07-12T12:39:11;28.60;1.00
31991;DHT22;18508;49.386;8.370;2022-07-12T12:41:40;28.50;1.00
31991;DHT22;18508;49.386;8.370;2022-07-12T12:44:12;28.40;1.00
31991;DHT22;18508;49.386;8.370;2022-07-12T12:46:52;28.50;1.00
31991;DHT22;18508;49.386;8.370;2022-07-12T12:49:44;28.60;1.00
31991;DHT22;18508;49.386;8.370;2022-07-12T12:52:22;28.80;1.00
31991;DHT22;18508;49.386;8.370;2022-07-12T12:54:50;28.90;1.00
31991;DHT22;18508;49.386;8.370;2022-07-12T12:57:20;28.80;1.00
31991;DHT22;18508;49.386;8.370;2022-07-12T12:59:49;29.00;1.00
31991;DHT22;18508;49.386;8.370;2022-07-12T13:02:19;28.90;1.00
31991;DHT22;18508;49.386;8.370;2022-07-12T13:04:52;28.90;1.00
31991;DHT22;18508;49.386;8.370;2022-07-12T13:07:28;28.80;1.00
31991;DHT22;18508;49.386;8.370;2022-07-12T13:09:57;28.80;1.00
31991;DHT22;18508;49.386;8.370;2022-07-12T13:12:27;28.80;1.00
31991;DHT22;18508;49.386;8.370;2022-07-12T13:14:56;29.40;1.00
31991;DHT22;18508;49.386;8.370;2022-07-12T13:17:26;29.50;1.00
31991;DHT22;18508;49.386;8.370;2022-07-12T13:19:54;29.90;1.00
31991;DHT22;18508;49.386;8.370;2022-07-12T13:22:26;29.90;1.00
31991;DHT22;18508;49.386;8.370;2022-07-12T13:24:55;29.90;1.00
31991;DHT22;18508;49.386;8.370;2022-07-12T13:27:24;30.00;1.00
31991;DHT22;18508;49.386;8.370;2022-07-12T13:29:53;30.10;1.00
31991;DHT22;18508;49.386;8.370;2022-07-12T13:32:22;30.60;1.00
31991;DHT22;18508;49.386;8.370;2022-07-12T13:34:53;30.60;1.00
31991;DHT22;18508;49.386;8.370;2022-07-12T13:37:21;31.10;1.00
31991;DHT22;18508;49.386;8.370;2022-07-12T13:39:49;31.80;1.00
31991;DHT22;18508;49.386;8.370;2022-07-12T13:42:35;32.10;99.90
31991;DHT22;18508;49.386;8.370;2022-07-12T13:45:05;32.10;99.90
31991;DHT22;18508;49.386;8.370;2022-07-12T13:47:34;32.30;99.90
31991;DHT22;18508;49.386;8.370;2022-07-12T13:50:05;32.10;99.90
31991;DHT22;18508;49.386;8.370;2022-07-12T13:52:36;32.80;99.90
31991;DHT22;18508;49.386;8.370;2022-07-12T13:55:08;32.80;99.90
31991;DHT22;18508;49.386;8.370;2022-07-12T13:57:38;33.20;99.90
31991;DHT22;18508;49.386;8.370;2022-07-12T14:00:08;33.20;1.00
31991;DHT22;18508;49.386;8.370;2022-07-12T14:02:38;33.20;1.00
31991;DHT22;18508;49.386;8.370;2022-07-12T14:05:14;34.00;1.00
31991;DHT22;18508;49.386;8.370;2022-07-12T14:07:44;34.30;1.00
31991;DHT22;18508;49.386;8.370;2022-07-12T14:10:14;34.90;1.00
31991;DHT22;18508;49.386;8.370;2022-07-12T14:12:43;35.40;1.00
31991;DHT22;18508;49.386;8.370;2022-07-12T14:15:12;35.30;1.00
31991;DHT22;18508;49.386;8.370;2022-07-12T14:18:04;35.80;1.00
31991;DHT22;18508;49.386;8.370;2022-07-12T14:20:35;35.40;1.00
31991;DHT22;18508;49.386;8.370;2022-07-12T14:23:07;35.80;1.00
31991;DHT22;18508;49.386;8.370;2022-07-12T14:25:38;36.10;1.00
31991;DHT22;18508;49.386;8.370;2022-07-12T14:28:10;35.70;1.00
31991;DHT22;18508;49.386;8.370;2022-07-12T14:30:38;36.10;1.00
31991;DHT22;18508;49.386;8.370;2022-07-12T14:33:10;35.40;1.00
31991;DHT22;18508;49.386;8.370;2022-07-12T14:35:41;35.60;1.00
31991;DHT22;18508;49.386;8.370;2022-07-12T14:38:09;35.60;1.00
31991;DHT22;18508;49.386;8.370;2022-07-12T14:40:37;35.30;1.00
31991;DHT22;18508;49.386;8.370;2022-07-12T14:43:06;35.40;1.00
31991;DHT22;18508;49.386;8.370;2022-07-12T14:45:34;35.40;1.00
31991;DHT22;18508;49.386;8.370;2022-07-12T14:48:02;35.60;1.00
31991;DHT22;18508;49.386;8.370;2022-07-12T14:50:30;35.60;1.00
31991;DHT22;18508;49.386;8.370;2022-07-12T14:52:59;36.20;1.00
31991;DHT22;18508;49.386;8.370;2022-07-12T14:55:27;36.60;1.00
31991;DHT22;18508;49.386;8.370;2022-07-12T14:57:56;36.60;1.00
31991;DHT22;18508;49.386;8.370;2022-07-12T15:00:24;36.10;1.00
31991;DHT22;18508;49.386;8.370;2022-07-12T15:02:52;36.40;1.00
31991;DHT22;18508;49.386;8.370;2022-07-12T15:05:26;36.40;1.00
31991;DHT22;18508;49.386;8.370;2022-07-12T15:07:54;37.20;1.00
31991;DHT22;18508;49.386;8.370;2022-07-12T15:10:24;37.00;1.00
31991;DHT22;18508;49.386;8.370;2022-07-12T15:12:52;37.60;1.00
31991;DHT22;18508;49.386;8.370;2022-07-12T15:15:20;37.60;1.00
31991;DHT22;18508;49.386;8.370;2022-07-12T15:17:51;37.60;1.00
31991;DHT22;18508;49.386;8.370;2022-07-12T15:20:21;37.30;1.00
31991;DHT22;18508;49.386;8.370;2022-07-12T15:22:49;37.40;1.00
31991;DHT22;18508;49.386;8.370;2022-07-12T15:25:17;37.80;1.00
31991;DHT22;18508;49.386;8.370;2022-07-12T15:27:47;37.30;1.00
31991;DHT22;18508;49.386;8.370;2022-07-12T15:30:16;37.10;1.00
31991;DHT22;18508;49.386;8.370;2022-07-12T15:32:44;38.40;1.00
31991;DHT22;18508;49.386;8.370;2022-07-12T15:35:19;38.70;1.00
31991;DHT22;18508;49.386;8.370;2022-07-12T15:37:47;38.60;1.00
31991;DHT22;18508;49.386;8.370;2022-07-12T15:40:15;39.30;1.00
31991;DHT22;18508;49.386;8.370;2022-07-12T15:42:43;39.50;1.00
31991;DHT22;18508;49.386;8.370;2022-07-12T15:45:12;39.10;1.00
31991;DHT22;18508;49.386;8.370;2022-07-12T15:47:40;39.40;1.00
31991;DHT22;18508;49.386;8.370;2022-07-12T15:50:09;40.00;1.00
31991;DHT22;18508;49.386;8.370;2022-07-12T15:52:37;39.80;1.00
31991;DHT22;18508;49.386;8.370;2022-07-12T15:55:23;40.40;1.00
31991;DHT22;18508;49.386;8.370;2022-07-12T15:57:51;39.20;1.00
31991;DHT22;18508;49.386;8.370;2022-07-12T16:00:21;39.20;1.00